McHenry, Kentucky
Current Conditions -  °F | °C
As of 6:15 AM on Monday 20 Oct 2014 (Local Time) from K2I0 Reporting Station
Broken Clouds Broken Clouds  
Wind Chill: 49°   Ceiling: 11000
Heat Index: 49°   Visibility: 10mi
Dew Point: 49°   Wind: 3mph
Humidity: 99%   Direction: 200°SSW
Pressure: 30.05"   Gusts: NA
Location:  37.38°N, 86.92°W
Report Text: K2I0 201115Z AUTO 20003KT 10SM BKN110 09/09 A3005 RMK AO2 T00930092
Loading
Personal Weather Stations






























Interactive Weather Map
Tropical Storm Tracking
New forecast layout! Learn more

10-Day Weather Forecast

Advertisements
Track Severe Weather on mobile